Time;durP1;ratioP1;P1;durP2;ratioP2;P2;SDS_P1;SDS_P2;PMS_P1;PMS_P2;Temp;Humidity;BMP_temperature;BMP_pressure;BME280_temperature;BME280_humidity;BME280_pressure;Samples;Min_cycle;Max_cycle;Signal;HPM_P1;HPM_P2
2022/11/20 00:00:10;;;;;;;14.47;13.07;;;6.20;99.90;;;;;;5075384;28;20568;-76
2022/11/20 00:02:36;;;;;;;15.07;13.50;;;6.10;99.90;;;;;;5093397;28;20183;-76
2022/11/20 00:05:02;;;;;;;15.87;14.27;;;6.10;99.90;;;;;;5083630;28;20197;-75
2022/11/20 00:07:29;;;;;;;13.47;12.10;;;6.10;99.90;;;;;;5074587;28;20243;-76
2022/11/20 00:09:55;;;;;;;12.20;11.00;;;6.00;99.90;;;;;;5073752;28;20272;-76
2022/11/20 00:12:20;;;;;;;16.50;11.77;;;6.00;99.90;;;;;;5058644;28;20220;-76
2022/11/20 00:14:46;;;;;;;15.83;11.70;;;5.90;99.90;;;;;;5053231;28;20304;-76
2022/11/20 00:17:12;;;;;;;13.17;11.77;;;5.80;99.90;;;;;;5053092;28;20209;-78
2022/11/20 00:19:38;;;;;;;14.10;12.33;;;5.80;99.90;;;;;;5053363;28;20190;-76
2022/11/20 00:22:03;;;;;;;13.47;12.13;;;5.80;99.90;;;;;;5067560;28;20185;-77
2022/11/20 00:24:29;;;;;;;13.77;11.87;;;5.80;99.90;;;;;;5072780;28;20202;-77
2022/11/20 00:26:55;;;;;;;13.37;11.93;;;5.70;99.90;;;;;;5073937;28;20289;-76
2022/11/20 00:29:20;;;;;;;12.20;11.00;;;5.70;99.90;;;;;;5074772;28;20184;-76
2022/11/20 00:31:46;;;;;;;12.87;11.53;;;5.70;99.90;;;;;;5063761;28;20181;-77
2022/11/20 00:34:12;;;;;;;14.07;12.57;;;5.70;99.90;;;;;;5054202;28;20586;-77
2022/11/20 00:36:38;;;;;;;14.13;11.40;;;5.70;99.90;;;;;;5054873;28;20178;-76
2022/11/20 00:39:03;;;;;;;12.13;10.93;;;5.70;99.90;;;;;;5052153;28;20181;-77
2022/11/20 00:41:29;;;;;;;12.10;10.70;;;5.60;99.90;;;;;;5053786;28;20179;-76
2022/11/20 00:43:56;;;;;;;12.63;11.33;;;5.70;99.90;;;;;;5053836;28;20654;-76
2022/11/20 00:46:24;;;;;;;13.80;12.40;;;5.70;99.90;;;;;;5053847;28;20677;-77
2022/11/20 00:48:50;;;;;;;15.77;11.90;;;5.70;99.90;;;;;;5053439;28;20182;-77
2022/11/20 00:51:18;;;;;;;12.97;11.60;;;5.70;99.90;;;;;;5059573;28;20708;-77
2022/11/20 00:53:45;;;;;;;12.50;11.23;;;5.70;99.90;;;;;;5071998;28;20205;-76
2022/11/20 00:56:13;;;;;;;15.03;11.67;;;5.70;99.90;;;;;;5072461;28;20186;-77
2022/11/20 00:58:41;;;;;;;17.63;15.87;;;5.70;99.90;;;;;;5073518;28;20807;-76
2022/11/20 01:01:09;;;;;;;27.90;25.63;;;5.70;99.90;;;;;;5073550;28;20182;-77
2022/11/20 01:03:37;;;;;;;32.63;30.40;;;5.70;99.90;;;;;;5073255;28;20185;-75
2022/11/20 01:06:16;;;;;;;37.13;34.70;;;5.80;99.90;;;;;;5073765;28;20197;-76
2022/11/20 01:08:43;;;;;;;33.40;31.03;;;5.80;99.90;;;;;;5071394;28;20189;-76
2022/11/20 01:11:15;;;;;;;22.80;20.80;;;5.80;99.90;;;;;;5067033;28;20722;-76
2022/11/20 01:13:42;;;;;;;13.63;12.33;;;5.80;99.90;;;;;;5052165;28;20233;-76
2022/11/20 01:16:20;;;;;;;12.97;11.80;;;5.80;99.90;;;;;;5051920;28;20190;-76
2022/11/20 01:18:48;;;;;;;14.60;13.20;;;5.80;99.90;;;;;;5052877;28;20643;-75
2022/11/20 01:21:19;;;;;;;12.10;10.90;;;5.90;99.90;;;;;;5056917;28;20178;-75
2022/11/20 01:23:45;;;;;;;12.83;11.70;;;5.90;99.90;;;;;;5073033;28;20265;-76
2022/11/20 01:26:29;;;;;;;14.83;13.63;;;5.90;99.90;;;;;;5073022;28;20199;-76
2022/11/20 01:28:56;;;;;;;14.87;13.67;;;5.90;99.90;;;;;;5072714;28;20604;-75
2022/11/20 01:31:32;;;;;;;13.80;12.57;;;5.90;99.90;;;;;;5066927;28;20179;-76
2022/11/20 01:34:01;;;;;;;12.20;11.10;;;5.90;99.90;;;;;;5052816;28;20198;-76
2022/11/20 01:36:29;;;;;;;14.23;12.97;;;5.90;99.90;;;;;;5051311;28;20177;-80
2022/11/20 01:39:01;;;;;;;11.17;10.27;;;5.90;99.90;;;;;;5052520;28;20175;-75
2022/11/20 01:44:16;;;;;;;14.17;12.87;;;6.00;99.90;;;;;;5072682;28;20205;-76
2022/11/20 01:46:51;;;;;;;13.87;12.77;;;6.00;99.90;;;;;;5071465;28;20186;-78
2022/11/20 01:49:23;;;;;;;34.27;32.30;;;6.00;99.90;;;;;;5072403;28;20185;-76
2022/11/20 01:52:18;;;;;;;49.97;46.93;;;6.00;99.90;;;;;;5063838;28;20199;-76
2022/11/20 01:55:04;;;;;;;50.17;47.47;;;5.90;99.90;;;;;;5061532;28;20218;-78
2022/11/20 01:57:33;;;;;;;29.73;27.87;;;5.90;99.90;;;;;;5047501;28;20281;-78
2022/11/20 02:00:11;;;;;;;13.70;12.23;;;6.00;99.90;;;;;;5053836;28;20179;-78
2022/11/20 02:02:39;;;;;;;11.73;10.90;;;6.00;99.90;;;;;;5066598;28;20216;-74
2022/11/20 02:05:17;;;;;;;12.43;11.33;;;6.00;99.90;;;;;;5052457;28;20206;-78
2022/11/20 02:07:43;;;;;;;13.00;12.10;;;6.00;99.90;;;;;;5050648;28;20210;-77
2022/11/20 02:10:10;;;;;;;12.40;11.30;;;6.00;99.90;;;;;;5050993;28;20229;-75
2022/11/20 02:15:24;;;;;;;40.63;38.50;;;5.90;99.90;;;;;;5069598;28;20202;-76
2022/11/20 02:17:50;;;;;;;45.43;42.93;;;5.80;99.90;;;;;;5050477;28;21021;-76
2022/11/20 02:20:19;;;;;;;17.10;16.00;;;5.70;99.90;;;;;;5052049;28;20216;-76
2022/11/20 02:23:04;;;;;;;7.80;7.30;;;5.70;99.90;;;;;;5052222;28;20616;-76
2022/11/20 02:25:32;;;;;;;8.20;7.50;;;5.60;99.90;;;;;;5051714;28;20228;-77
2022/11/20 02:27:59;;;;;;;9.97;9.27;;;5.50;99.90;;;;;;5050165;28;20700;-76
2022/11/20 02:30:25;;;;;;;8.30;7.73;;;5.50;99.90;;;;;;5051720;28;20186;-76
2022/11/20 02:32:51;;;;;;;10.83;10.03;;;5.60;99.90;;;;;;5065993;28;20270;-77
2022/11/20 02:35:19;;;;;;;27.00;25.50;;;5.50;99.90;;;;;;5041858;28;20629;-77
2022/11/20 02:37:48;;;;;;;32.67;30.80;;;5.50;99.90;;;;;;5063922;28;20242;-77
2022/11/20 02:40:14;;;;;;;37.93;35.80;;;5.50;99.90;;;;;;5056457;28;20265;-77
2022/11/20 02:42:40;;;;;;;48.70;46.07;;;5.50;99.90;;;;;;5051527;28;20174;-78
2022/11/20 02:45:07;;;;;;;38.90;36.50;;;5.50;99.90;;;;;;5053719;28;20217;-78
2022/11/20 02:47:32;;;;;;;38.13;36.03;;;5.50;99.90;;;;;;5051502;28;20186;-77
2022/11/20 02:49:58;;;;;;;25.07;23.70;;;5.60;99.90;;;;;;5068820;28;20223;-77
2022/11/20 02:52:25;;;;;;;18.30;17.10;;;5.60;99.90;;;;;;5060668;28;20189;-78
2022/11/20 02:54:51;;;;;;;18.23;17.10;;;5.60;99.90;;;;;;5052394;28;20222;-76
2022/11/20 02:57:17;;;;;;;17.13;16.03;;;5.70;99.90;;;;;;5052998;28;20182;-77
2022/11/20 02:59:42;;;;;;;16.87;15.77;;;5.80;99.90;;;;;;5051096;28;20178;-77
2022/11/20 03:02:08;;;;;;;12.30;11.47;;;5.80;99.90;;;;;;5053489;28;20635;-77
2022/11/20 03:04:34;;;;;;;14.53;13.43;;;5.80;99.90;;;;;;5049942;28;20206;-77
2022/11/20 03:07:00;;;;;;;15.30;14.40;;;5.80;99.90;;;;;;5051581;28;20182;-77
2022/11/20 03:09:26;;;;;;;14.83;13.83;;;5.90;99.90;;;;;;5051079;28;20563;-76
2022/11/20 03:11:51;;;;;;;13.13;12.10;;;5.90;99.90;;;;;;5053653;28;20190;-76
2022/11/20 03:14:17;;;;;;;13.03;12.13;;;6.00;99.90;;;;;;5050737;28;20599;-76
2022/11/20 03:16:43;;;;;;;14.57;13.23;;;6.00;99.90;;;;;;5049616;28;20232;-77
2022/11/20 03:19:14;;;;;;;14.50;13.30;;;6.00;99.90;;;;;;5059534;28;20181;-77
2022/11/20 03:21:40;;;;;;;36.13;34.13;;;6.00;99.90;;;;;;5070501;28;20532;-78
2022/11/20 03:24:06;;;;;;;38.97;36.73;;;6.00;99.90;;;;;;5071992;28;20351;-78
2022/11/20 03:26:33;;;;;;;40.93;38.47;;;6.10;99.90;;;;;;5072727;28;20186;-78
2022/11/20 03:29:01;;;;;;;8.10;7.43;;;6.10;99.90;;;;;;5063581;28;20576;-78
2022/11/20 03:31:41;;;;;;;7.47;6.77;;;6.00;99.90;;;;;;5051296;28;20193;-77
2022/11/20 03:34:09;;;;;;;7.07;6.57;;;6.00;99.90;;;;;;5047138;28;20225;-77
2022/11/20 03:36:38;;;;;;;7.20;6.63;;;6.10;99.90;;;;;;5052632;28;20178;-77
2022/11/20 03:39:03;;;;;;;7.17;6.57;;;6.10;99.90;;;;;;5062136;28;20193;-78
2022/11/20 03:41:31;;;;;;;6.97;6.43;;;6.10;99.90;;;;;;5078418;28;20207;-77
2022/11/20 03:43:59;;;;;;;8.57;7.90;;;6.10;99.90;;;;;;5079164;28;20177;-78
2022/11/20 03:46:26;;;;;;;10.93;10.10;;;6.20;99.90;;;;;;5071066;28;20181;-77
2022/11/20 03:48:52;;;;;;;12.57;11.53;;;6.20;99.90;;;;;;5069803;28;20185;-76
2022/11/20 03:51:23;;;;;;;14.93;13.73;;;6.20;99.90;;;;;;5057094;28;20647;-76
2022/11/20 03:53:51;;;;;;;14.93;13.77;;;6.20;99.90;;;;;;5050405;28;20217;-76
2022/11/20 03:56:18;;;;;;;13.20;12.17;;;6.20;99.90;;;;;;5050415;28;20193;-75
2022/11/20 03:58:44;;;;;;;9.33;8.60;;;6.20;99.90;;;;;;5049018;28;20186;-75
2022/11/20 04:01:15;;;;;;;9.00;8.40;;;6.20;99.90;;;;;;5050648;28;20171;-75
2022/11/20 04:03:42;;;;;;;12.00;11.10;;;6.20;99.90;;;;;;5051104;28;20206;-75
2022/11/20 04:06:14;;;;;;;13.27;12.43;;;6.20;99.90;;;;;;5070239;28;20178;-75
2022/11/20 04:08:40;;;;;;;13.00;12.27;;;6.20;99.90;;;;;;5069124;28;20177;-75
2022/11/20 04:11:14;;;;;;;13.83;13.00;;;6.20;99.90;;;;;;5070578;28;20650;-75
2022/11/20 04:13:42;;;;;;;13.27;12.27;;;6.20;99.90;;;;;;5069438;28;20700;-75
2022/11/20 04:16:09;;;;;;;14.57;13.50;;;6.20;99.90;;;;;;5070302;28;20225;-75
2022/11/20 04:18:36;;;;;;;16.70;15.40;;;6.20;99.90;;;;;;5069926;28;20273;-76
2022/11/20 04:21:02;;;;;;;19.60;18.40;;;6.20;99.90;;;;;;5059593;28;20174;-75
2022/11/20 04:23:28;;;;;;;22.90;21.60;;;6.20;99.90;;;;;;5050432;28;20192;-76
2022/11/20 04:25:54;;;;;;;22.03;20.63;;;6.20;99.90;;;;;;5050353;28;20202;-75
2022/11/20 04:28:20;;;;;;;23.10;21.67;;;6.30;99.90;;;;;;5050033;28;20247;-76
2022/11/20 04:30:46;;;;;;;26.57;25.20;;;6.30;99.90;;;;;;5049248;28;20269;-76
2022/11/20 04:33:12;;;;;;;22.47;21.30;;;6.30;99.90;;;;;;5048999;28;20747;-76
2022/11/20 04:35:38;;;;;;;19.43;18.07;;;6.30;99.90;;;;;;5066435;28;20611;-76
2022/11/20 04:38:04;;;;;;;14.80;13.73;;;6.30;99.90;;;;;;5069991;28;20197;-75
2022/11/20 04:40:30;;;;;;;11.63;10.87;;;6.40;99.90;;;;;;5072739;28;20208;-76
2022/11/20 04:42:56;;;;;;;9.40;8.77;;;6.40;99.90;;;;;;5073841;28;20177;-76
2022/11/20 04:45:23;;;;;;;8.40;7.70;;;6.40;99.90;;;;;;5072717;28;20201;-75
2022/11/20 04:47:49;;;;;;;8.13;7.53;;;6.40;99.90;;;;;;5068455;28;20219;-76
2022/11/20 04:50:15;;;;;;;6.83;6.43;;;6.50;99.90;;;;;;5052506;28;20181;-76
2022/11/20 04:52:41;;;;;;;8.27;7.67;;;6.40;99.90;;;;;;5053605;28;20208;-76
2022/11/20 04:55:08;;;;;;;8.93;8.40;;;6.40;99.90;;;;;;5053383;28;20922;-76
2022/11/20 04:57:34;;;;;;;10.03;9.23;;;6.40;99.90;;;;;;5052066;28;20178;-76
2022/11/20 04:59:59;;;;;;;12.33;11.40;;;6.40;99.90;;;;;;5053773;28;20229;-75
2022/11/20 05:02:25;;;;;;;11.60;10.83;;;6.40;99.90;;;;;;5063095;28;20903;-76
2022/11/20 05:04:51;;;;;;;11.90;11.20;;;6.40;99.90;;;;;;5072242;28;20743;-76
2022/11/20 05:07:16;;;;;;;12.50;11.70;;;6.40;99.90;;;;;;5071702;28;20699;-76
2022/11/20 05:09:42;;;;;;;12.03;11.33;;;6.50;99.90;;;;;;5071629;28;20185;-75
2022/11/20 05:12:09;;;;;;;11.77;11.07;;;6.50;99.90;;;;;;5073558;28;20178;-76
2022/11/20 05:14:35;;;;;;;13.23;12.47;;;6.50;99.90;;;;;;5072397;28;20304;-76
2022/11/20 05:17:01;;;;;;;13.47;12.63;;;6.40;99.90;;;;;;5053123;28;20174;-76
2022/11/20 05:19:27;;;;;;;12.43;11.73;;;6.40;99.90;;;;;;5053339;28;20187;-76
2022/11/20 05:21:53;;;;;;;11.53;10.83;;;6.40;99.90;;;;;;5053126;28;20663;-75
2022/11/20 05:24:19;;;;;;;10.70;10.20;;;6.40;99.90;;;;;;5051722;28;20198;-75
2022/11/20 05:26:44;;;;;;;10.47;9.77;;;6.40;99.90;;;;;;5051647;28;20196;-76
2022/11/20 05:29:13;;;;;;;10.97;10.10;;;6.40;99.90;;;;;;5056427;28;20654;-75
2022/11/20 05:31:40;;;;;;;10.43;9.90;;;6.40;99.90;;;;;;5071001;28;20555;-76
2022/11/20 05:34:07;;;;;;;10.50;10.00;;;6.40;99.90;;;;;;5051511;28;20217;-76
2022/11/20 05:36:34;;;;;;;10.33;9.67;;;6.40;99.90;;;;;;5052620;28;20186;-75
2022/11/20 05:38:59;;;;;;;10.67;9.83;;;6.40;99.90;;;;;;5052397;28;20552;-76
2022/11/20 05:41:25;;;;;;;9.30;8.80;;;6.50;99.90;;;;;;5051398;28;20178;-76
2022/11/20 05:43:51;;;;;;;9.70;8.80;;;6.50;99.90;;;;;;5064108;28;20182;-75
2022/11/20 05:46:20;;;;;;;6.53;6.03;;;6.50;99.90;;;;;;5050856;28;20197;-75
2022/11/20 05:48:46;;;;;;;6.37;6.00;;;6.50;99.90;;;;;;5050963;28;20292;-75
2022/11/20 05:51:16;;;;;;;6.60;6.03;;;6.50;99.90;;;;;;5058542;28;20181;-76
2022/11/20 05:53:43;;;;;;;6.43;6.03;;;6.50;99.90;;;;;;5070701;28;20206;-75
2022/11/20 05:56:13;;;;;;;6.17;5.87;;;6.50;99.90;;;;;;5070275;28;20189;-76
2022/11/20 05:58:40;;;;;;;6.87;6.27;;;6.50;99.90;;;;;;5070122;28;20268;-74
2022/11/20 06:01:12;;;;;;;6.60;6.20;;;6.50;99.90;;;;;;5070485;28;20187;-75
2022/11/20 06:03:38;;;;;;;5.93;5.63;;;6.50;99.90;;;;;;5072140;28;20206;-76
2022/11/20 06:06:06;;;;;;;6.53;6.07;;;6.50;99.90;;;;;;5070762;28;20205;-75
2022/11/20 06:08:32;;;;;;;6.60;6.27;;;6.50;99.90;;;;;;5071498;28;20562;-74
2022/11/20 06:11:02;;;;;;;6.10;5.70;;;6.50;99.90;;;;;;5061290;28;20178;-73
2022/11/20 06:13:28;;;;;;;7.10;6.60;;;6.50;99.90;;;;;;5050778;28;20638;-74
2022/11/20 06:15:54;;;;;;;6.87;6.27;;;6.50;99.90;;;;;;5050732;28;20302;-74
2022/11/20 06:18:20;;;;;;;7.63;6.70;;;6.50;99.90;;;;;;5050783;28;20178;-74
2022/11/20 06:20:47;;;;;;;7.43;6.93;;;6.50;99.90;;;;;;5050790;28;20178;-74
2022/11/20 06:23:13;;;;;;;7.27;6.77;;;6.50;99.90;;;;;;5051419;28;20892;-74
2022/11/20 06:25:40;;;;;;;8.63;8.17;;;6.50;99.90;;;;;;5067953;28;20202;-74
2022/11/20 06:28:07;;;;;;;7.77;7.27;;;6.50;99.90;;;;;;5071431;28;20186;-73
2022/11/20 06:30:33;;;;;;;9.93;9.40;;;6.50;99.90;;;;;;5070102;28;20677;-74
2022/11/20 06:32:59;;;;;;;10.53;9.83;;;6.50;99.90;;;;;;5071821;28;20197;-75
2022/11/20 06:35:25;;;;;;;9.20;8.70;;;6.60;99.90;;;;;;5070167;28;20202;-74
2022/11/20 06:37:51;;;;;;;10.23;9.63;;;6.60;99.90;;;;;;5065487;28;20175;-75
2022/11/20 06:40:16;;;;;;;10.50;9.90;;;6.60;99.90;;;;;;5051386;28;20193;-74
2022/11/20 06:42:42;;;;;;;12.00;11.33;;;6.60;99.90;;;;;;5051623;28;20197;-75
2022/11/20 06:45:09;;;;;;;13.90;13.20;;;6.60;99.90;;;;;;5050606;28;20672;-74
2022/11/20 06:47:35;;;;;;;12.67;12.07;;;6.60;99.90;;;;;;5050976;28;20707;-74
2022/11/20 06:50:01;;;;;;;15.30;14.40;;;6.60;99.90;;;;;;5050159;28;20182;-74
2022/11/20 06:52:27;;;;;;;17.10;16.20;;;6.60;99.90;;;;;;5051399;28;20244;-74
2022/11/20 06:54:53;;;;;;;19.63;18.53;;;6.60;99.90;;;;;;5066591;28;20281;-74
2022/11/20 06:57:19;;;;;;;17.33;16.40;;;6.60;99.90;;;;;;5070799;28;20181;-74
2022/11/20 06:59:44;;;;;;;15.67;14.87;;;6.60;99.90;;;;;;5070979;28;20316;-73
2022/11/20 07:02:11;;;;;;;14.67;13.77;;;6.70;99.90;;;;;;5070926;28;20218;-73
2022/11/20 07:04:38;;;;;;;13.10;11.97;;;6.70;99.90;;;;;;5063054;28;20202;-73
2022/11/20 07:07:04;;;;;;;12.97;12.37;;;6.70;99.90;;;;;;5064191;28;20186;-74
2022/11/20 07:09:29;;;;;;;12.60;11.87;;;6.70;99.90;;;;;;5048671;28;20558;-73
2022/11/20 07:11:55;;;;;;;13.40;12.57;;;6.70;99.90;;;;;;5049405;28;20187;-74
2022/11/20 07:14:21;;;;;;;11.23;10.73;;;6.70;99.90;;;;;;5049059;28;20213;-73
2022/11/20 07:16:47;;;;;;;10.13;9.43;;;6.70;99.90;;;;;;5051240;28;20187;-73
2022/11/20 07:19:12;;;;;;;10.53;9.57;;;6.70;99.90;;;;;;5051724;28;20178;-73
2022/11/20 07:21:38;;;;;;;8.03;7.53;;;6.70;99.90;;;;;;5051848;28;20190;-73
2022/11/20 07:24:04;;;;;;;7.83;7.43;;;6.80;99.90;;;;;;5050829;28;20202;-75
2022/11/20 07:26:30;;;;;;;8.53;8.03;;;6.80;99.90;;;;;;5050892;28;20202;-73
2022/11/20 07:28:56;;;;;;;8.03;7.63;;;6.80;99.90;;;;;;5050469;28;20717;-74
2022/11/20 07:31:22;;;;;;;8.10;7.70;;;6.80;99.90;;;;;;5069320;28;20182;-74
2022/11/20 07:33:48;;;;;;;8.43;7.93;;;6.80;99.90;;;;;;5069283;28;20762;-75
2022/11/20 07:36:14;;;;;;;7.50;7.10;;;6.90;99.90;;;;;;5069462;28;20266;-74
2022/11/20 07:38:39;;;;;;;9.40;8.77;;;7.00;99.90;;;;;;5068139;28;20203;-74
2022/11/20 07:41:05;;;;;;;10.00;9.40;;;7.00;99.90;;;;;;5054589;28;20265;-69
2022/11/20 07:43:31;;;;;;;11.03;10.23;;;7.10;99.90;;;;;;5071057;28;20178;-67
2022/11/20 07:45:58;;;;;;;10.27;9.67;;;7.10;99.90;;;;;;5053508;28;20206;-68
2022/11/20 07:48:24;;;;;;;9.27;8.83;;;7.10;99.90;;;;;;5050548;28;20186;-68
2022/11/20 07:50:54;;;;;;;8.83;8.33;;;7.20;99.90;;;;;;5041433;28;20699;-67
2022/11/20 07:53:21;;;;;;;6.50;6.20;;;7.20;99.90;;;;;;5046339;28;20210;-69
2022/11/20 07:55:47;;;;;;;5.70;5.40;;;7.20;99.90;;;;;;5030310;28;20218;-67
2022/11/20 07:58:16;;;;;;;6.07;5.67;;;7.30;99.90;;;;;;5028691;28;20179;-67
2022/11/20 08:00:42;;;;;;;5.70;5.40;;;7.30;99.90;;;;;;5030689;28;20266;-67
2022/11/20 08:03:07;;;;;;;6.63;6.13;;;7.40;99.90;;;;;;5046613;28;20697;-67
2022/11/20 08:05:33;;;;;;;5.67;5.30;;;7.40;99.90;;;;;;5066915;28;20198;-67
2022/11/20 08:07:59;;;;;;;5.73;4.70;;;7.50;99.90;;;;;;5050375;28;20175;-67
2022/11/20 08:10:25;;;;;;;6.53;5.87;;;7.60;99.90;;;;;;5050275;28;20252;-67
2022/11/20 08:15:39;;;;;;;24.83;23.57;;;7.80;99.90;;;;;;5054038;28;20690;-67
2022/11/20 08:18:11;;;;;;;22.10;20.93;;;7.90;99.90;;;;;;5069902;28;20220;-67
2022/11/20 08:20:38;;;;;;;21.40;20.37;;;7.80;99.90;;;;;;5053798;28;20553;-67
2022/11/20 08:23:07;;;;;;;26.70;25.33;;;7.70;99.90;;;;;;5054398;28;20221;-68
2022/11/20 08:25:36;;;;;;;32.20;30.53;;;7.70;99.90;;;;;;5053948;28;20584;-67
2022/11/20 08:28:04;;;;;;;25.70;24.33;;;7.80;99.90;;;;;;5052454;28;20218;-67
2022/11/20 08:30:29;;;;;;;12.37;11.70;;;7.80;99.90;;;;;;5060962;28;20188;-68
2022/11/20 08:33:02;;;;;;;25.43;24.07;;;7.60;99.90;;;;;;5073908;28;20238;-68
2022/11/20 08:35:28;;;;;;;28.33;26.83;;;7.60;99.90;;;;;;5070778;28;20234;-69
2022/11/20 08:37:54;;;;;;;48.13;45.80;;;7.60;99.90;;;;;;5054727;28;20170;-70
2022/11/20 08:40:20;;;;;;;44.00;41.77;;;7.60;99.90;;;;;;5056853;28;20186;-70
2022/11/20 08:42:50;;;;;;;26.33;24.87;;;7.80;99.90;;;;;;5070587;28;20826;-71
2022/11/20 08:45:16;;;;;;;14.20;13.50;;;7.80;99.90;;;;;;5053766;28;20202;-70
2022/11/20 08:47:43;;;;;;;8.00;7.60;;;7.90;99.90;;;;;;5039489;28;20198;-70
2022/11/20 08:50:13;;;;;;;6.00;5.70;;;7.90;99.90;;;;;;5031106;28;20689;-71
2022/11/20 08:52:39;;;;;;;7.10;6.70;;;7.80;99.90;;;;;;5033766;28;20217;-70
2022/11/20 08:55:06;;;;;;;7.63;7.17;;;7.90;99.90;;;;;;5061183;28;20240;-70
2022/11/20 08:57:35;;;;;;;5.97;5.57;;;8.00;99.90;;;;;;5072509;28;20187;-75
2022/11/20 09:00:03;;;;;;;5.47;5.17;;;8.00;99.90;;;;;;5073693;28;20236;-74
2022/11/20 09:02:29;;;;;;;5.87;5.50;;;8.00;99.90;;;;;;5073656;28;20186;-74
2022/11/20 09:04:55;;;;;;;4.70;4.40;;;8.00;99.90;;;;;;5072415;28;20343;-74
2022/11/20 09:07:21;;;;;;;4.13;3.93;;;8.00;99.90;;;;;;5070161;28;20184;-75
2022/11/20 09:09:47;;;;;;;6.43;4.53;;;7.90;99.90;;;;;;5052457;28;20236;-75
2022/11/20 09:12:13;;;;;;;5.63;5.30;;;7.90;99.90;;;;;;5053733;28;20186;-74
2022/11/20 09:14:39;;;;;;;4.93;4.73;;;7.90;99.90;;;;;;5052140;28;20293;-74
2022/11/20 09:17:07;;;;;;;4.67;4.47;;;8.00;99.90;;;;;;5051939;28;20801;-75
2022/11/20 09:19:33;;;;;;;6.30;5.80;;;8.00;99.90;;;;;;5053389;28;20182;-75
2022/11/20 09:21:59;;;;;;;5.63;5.30;;;8.00;99.90;;;;;;5061348;28;20265;-74
2022/11/20 09:24:26;;;;;;;5.67;5.30;;;8.00;99.90;;;;;;5073186;28;20198;-77
2022/11/20 09:26:52;;;;;;;5.13;4.93;;;7.90;99.90;;;;;;5073031;28;20220;-75
2022/11/20 09:29:18;;;;;;;8.37;7.97;;;7.80;99.90;;;;;;5074424;28;20532;-75
2022/11/20 09:31:44;;;;;;;60.07;57.03;;;7.70;99.90;;;;;;5073436;28;20697;-74
2022/11/20 09:34:09;;;;;;;70.93;67.07;;;7.60;99.90;;;;;;5071956;28;20222;-74
2022/11/20 09:36:36;;;;;;;45.07;42.87;;;7.60;99.90;;;;;;5055277;28;20185;-74
2022/11/20 09:39:02;;;;;;;15.47;14.67;;;7.50;99.90;;;;;;5052961;28;20545;-75
2022/11/20 09:42:25;;;;;;;6.57;6.07;;;7.50;99.90;;;;;;5052128;28;20181;-74
2022/11/20 09:45:11;;;;;;;6.47;6.00;;;7.60;99.90;;;;;;5011201;28;20208;-74
2022/11/20 09:48:04;;;;;;;7.73;7.17;;;7.60;99.90;;;;;;5011315;28;20187;-75
2022/11/20 09:50:37;;;;;;;16.50;15.63;;;7.70;99.90;;;;;;5065545;28;20680;-76
2022/11/20 09:53:50;;;;;;;28.10;26.73;;;7.70;99.90;;;;;;5072670;28;20197;-75
2022/11/20 09:56:18;;;;;;;26.83;25.53;;;7.60;99.90;;;;;;4993995;28;20195;-75
2022/11/20 09:58:52;;;;;;;30.43;28.57;;;7.60;99.90;;;;;;5060517;28;20205;-75
2022/11/20 10:01:21;;;;;;;20.00;18.83;;;7.60;99.90;;;;;;5072755;28;20181;-75
2022/11/20 10:04:04;;;;;;;25.50;24.17;;;7.60;99.90;;;;;;5057309;28;20548;-75
2022/11/20 10:06:31;;;;;;;28.60;27.27;;;7.70;99.90;;;;;;5052480;28;20189;-75
2022/11/20 10:09:20;;;;;;;14.47;13.80;;;7.70;99.90;;;;;;5051946;28;20206;-75
2022/11/20 10:11:52;;;;;;;20.23;19.23;;;7.70;99.90;;;;;;5050992;28;20611;-74
2022/11/20 10:14:48;;;;;;;33.40;31.43;;;7.70;99.90;;;;;;5052161;28;20222;-75
2022/11/20 10:17:26;;;;;;;39.13;37.13;;;7.70;99.90;;;;;;5050712;28;20216;-74
2022/11/20 10:20:09;;;;;;;54.03;51.27;;;7.80;99.90;;;;;;5067493;28;20170;-74
2022/11/20 10:22:48;;;;;;;51.20;48.60;;;7.80;99.90;;;;;;5072348;28;20205;-74
2022/11/20 10:25:24;;;;;;;56.30;53.57;;;7.90;99.90;;;;;;5070720;28;20639;-74
2022/11/20 10:28:14;;;;;;;61.20;58.27;;;7.90;99.90;;;;;;5070944;28;20662;-74
2022/11/20 10:30:45;;;;;;;40.00;38.13;;;7.90;99.90;;;;;;5070902;28;20260;-74
2022/11/20 10:33:22;;;;;;;23.20;22.07;;;7.80;99.90;;;;;;5058530;28;20182;-74
2022/11/20 10:36:19;;;;;;;14.47;13.67;;;7.70;99.90;;;;;;5051482;28;20288;-75
2022/11/20 10:38:56;;;;;;;4.03;3.83;;;7.70;99.90;;;;;;5050487;28;20186;-74
2022/11/20 10:41:30;;;;;;;6.17;5.77;;;7.70;99.90;;;;;;5050579;28;20182;-74
2022/11/20 10:47:18;;;;;;;26.50;24.50;;;7.50;99.90;;;;;;5066386;28;20186;-75
2022/11/20 10:49:48;;;;;;;17.73;16.63;;;7.40;99.90;;;;;;5070542;28;20637;-75
2022/11/20 10:52:35;;;;;;;8.80;8.30;;;7.30;99.90;;;;;;5071787;28;20235;-75
2022/11/20 10:55:25;;;;;;;6.93;6.53;;;7.20;99.90;;;;;;5070051;28;20240;-75
2022/11/20 10:58:09;;;;;;;7.50;7.20;;;7.20;99.90;;;;;;5070469;28;20608;-75
2022/11/20 11:00:34;;;;;;;7.33;7.03;;;7.10;99.90;;;;;;5057827;28;20178;-74
2022/11/20 11:03:02;;;;;;;29.87;28.43;;;7.00;99.90;;;;;;5050162;28;20201;-75
2022/11/20 11:06:06;;;;;;;16.37;15.43;;;6.90;99.90;;;;;;5051304;28;20202;-74
2022/11/20 11:08:38;;;;;;;5.40;5.10;;;6.90;99.90;;;;;;5016749;28;20217;-74
2022/11/20 11:11:21;;;;;;;5.37;5.17;;;7.00;99.90;;;;;;5050203;28;20902;-75
2022/11/20 11:13:47;;;;;;;5.60;5.20;;;7.00;99.90;;;;;;5057452;28;20681;-74
2022/11/20 11:16:26;;;;;;;5.23;5.03;;;7.00;99.90;;;;;;5069852;28;20258;-75
2022/11/20 11:19:07;;;;;;;7.97;7.57;;;6.90;99.90;;;;;;5071111;28;20182;-74
2022/11/20 11:21:32;;;;;;;5.73;5.50;;;6.90;99.90;;;;;;5070077;28;20176;-75
2022/11/20 11:24:22;;;;;;;5.40;5.10;;;6.90;99.90;;;;;;5070303;28;20658;-76
2022/11/20 11:27:06;;;;;;;5.37;5.17;;;6.80;99.90;;;;;;5068826;28;20188;-75
2022/11/20 11:29:33;;;;;;;13.10;12.00;;;6.80;99.90;;;;;;5050275;28;20190;-76
2022/11/20 11:32:20;;;;;;;9.33;8.90;;;6.80;99.90;;;;;;5050398;28;20728;-73
2022/11/20 11:35:02;;;;;;;8.30;7.70;;;6.80;99.90;;;;;;5050123;28;20698;-76
2022/11/20 11:37:35;;;;;;;7.93;7.57;;;6.70;99.90;;;;;;5049567;28;20673;-76
2022/11/20 11:40:03;;;;;;;19.00;18.03;;;6.70;99.90;;;;;;5051351;28;20189;-76
2022/11/20 11:42:29;;;;;;;16.07;15.30;;;6.80;99.90;;;;;;5069178;28;20197;-76
2022/11/20 11:45:05;;;;;;;19.57;18.57;;;6.70;99.90;;;;;;5071058;28;20605;-76
2022/11/20 11:47:41;;;;;;;15.60;14.77;;;6.80;99.90;;;;;;5069621;28;20189;-76
2022/11/20 11:50:10;;;;;;;21.10;20.03;;;6.80;99.90;;;;;;5073759;28;20216;-76
2022/11/20 11:53:01;;;;;;;13.60;13.00;;;6.90;99.90;;;;;;5075179;28;20281;-75
2022/11/20 11:55:51;;;;;;;10.63;8.13;;;7.20;99.90;;;;;;5052533;28;20309;-75
2022/11/20 11:58:55;;;;;;;17.20;16.10;;;7.40;99.90;;;;;;5053350;28;20183;-76
2022/11/20 12:01:50;;;;;;;18.63;17.77;;;7.60;99.90;;;;;;5052157;28;20676;-75
2022/11/20 12:04:50;;;;;;;11.20;10.50;;;8.40;99.90;;;;;;5053552;28;20198;-76
2022/11/20 12:07:37;;;;;;;9.60;9.00;;;10.50;99.90;;;;;;5054433;28;20182;-76
2022/11/20 12:10:04;;;;;;;8.70;8.27;;;12.10;99.90;;;;;;5073698;28;20556;-76
2022/11/20 12:12:58;;;;;;;20.63;19.70;;;12.30;99.90;;;;;;5073791;28;20179;-73
2022/11/20 12:15:31;;;;;;;13.50;12.43;;;11.40;99.90;;;;;;5068985;28;20227;-74
2022/11/20 12:17:57;;;;;;;5.67;5.37;;;11.40;99.90;;;;;;5058866;28;20201;-67
2022/11/20 12:20:28;;;;;;;7.63;7.30;;;12.60;99.90;;;;;;5054694;28;20643;-67
2022/11/20 12:23:13;;;;;;;17.37;16.57;;;14.90;99.90;;;;;;5054477;28;20187;-68
2022/11/20 12:25:43;;;;;;;11.23;10.47;;;15.20;99.90;;;;;;5054189;28;20556;-66
2022/11/20 12:28:36;;;;;;;7.17;6.50;;;14.20;99.90;;;;;;5053771;28;20705;-67
2022/11/20 12:31:27;;;;;;;6.50;5.90;;;13.20;99.90;;;;;;5034239;28;20201;-75
2022/11/20 12:33:53;;;;;;;8.00;7.60;;;12.80;99.90;;;;;;5034179;28;20211;-74
2022/11/20 12:36:18;;;;;;;8.67;8.13;;;12.90;99.90;;;;;;5034326;28;20602;-73
2022/11/20 12:39:18;;;;;;;12.87;12.17;;;13.80;99.90;;;;;;5032513;28;20239;-73
2022/11/20 12:45:09;;;;;;;8.43;8.03;;;12.60;99.90;;;;;;5072911;28;20206;-77
2022/11/20 12:48:06;;;;;;;8.87;8.47;;;11.90;99.90;;;;;;5047303;28;20194;-77
2022/11/20 12:50:50;;;;;;;10.80;10.20;;;11.00;99.90;;;;;;5053599;28;20197;-77
2022/11/20 12:53:48;;;;;;;14.87;13.97;;;10.80;99.90;;;;;;5057377;28;20184;-77
2022/11/20 12:56:47;;;;;;;12.70;12.00;;;10.50;99.90;;;;;;5061721;28;20563;-77
2022/11/20 12:59:15;;;;;;;7.47;6.97;;;10.20;99.90;;;;;;5038635;28;20825;-76
2022/11/20 13:02:16;;;;;;;8.20;7.80;;;10.40;99.90;;;;;;5058610;28;20186;-77
2022/11/20 13:05:06;;;;;;;9.33;8.83;;;10.70;99.90;;;;;;5051396;28;20214;-78
2022/11/20 13:07:35;;;;;;;7.63;7.13;;;10.50;99.90;;;;;;5054146;28;20236;-78
2022/11/20 13:10:01;;;;;;;10.53;9.93;;;10.40;99.90;;;;;;5053501;28;20182;-78
2022/11/20 13:12:31;;;;;;;12.20;11.60;;;10.70;99.90;;;;;;5055517;28;20643;-77
2022/11/20 13:15:30;;;;;;;12.33;11.73;;;10.40;99.90;;;;;;5052846;28;20612;-78